sensor_id;sensor_type;location;lat;lon;timestamp;P1;durP1;ratioP1;P2;durP2;ratioP2
21360;SDS011;10839;43.206;23.550;2023-11-19T00:00:10;1.75;;;1.10;;
21360;SDS011;10839;43.206;23.550;2023-11-19T00:02:37;1.60;;;1.20;;
21360;SDS011;10839;43.206;23.550;2023-11-19T00:05:04;2.67;;;1.55;;
21360;SDS011;10839;43.206;23.550;2023-11-19T00:07:34;2.42;;;1.20;;
21360;SDS011;10839;43.206;23.550;2023-11-19T00:10:01;2.35;;;1.50;;
21360;SDS011;10839;43.206;23.550;2023-11-19T00:12:32;1.67;;;1.13;;
21360;SDS011;10839;43.206;23.550;2023-11-19T00:14:57;1.52;;;1.40;;
21360;SDS011;10839;43.206;23.550;2023-11-19T00:17:23;1.83;;;1.30;;
21360;SDS011;10839;43.206;23.550;2023-11-19T00:19:49;2.97;;;1.80;;
21360;SDS011;10839;43.206;23.550;2023-11-19T00:22:16;2.13;;;1.42;;
21360;SDS011;10839;43.206;23.550;2023-11-19T00:24:42;1.83;;;1.40;;
21360;SDS011;10839;43.206;23.550;2023-11-19T00:27:08;1.90;;;1.20;;
21360;SDS011;10839;43.206;23.550;2023-11-19T00:29:34;2.90;;;1.50;;
21360;SDS011;10839;43.206;23.550;2023-11-19T00:31:59;1.83;;;1.20;;
21360;SDS011;10839;43.206;23.550;2023-11-19T00:34:25;2.58;;;1.50;;
21360;SDS011;10839;43.206;23.550;2023-11-19T00:36:51;1.60;;;1.33;;
21360;SDS011;10839;43.206;23.550;2023-11-19T00:39:17;1.65;;;1.30;;
21360;SDS011;10839;43.206;23.550;2023-11-19T00:41:43;2.30;;;1.55;;
21360;SDS011;10839;43.206;23.550;2023-11-19T00:44:09;2.40;;;1.70;;
21360;SDS011;10839;43.206;23.550;2023-11-19T00:46:34;2.33;;;1.50;;
21360;SDS011;10839;43.206;23.550;2023-11-19T00:49:00;1.50;;;1.40;;
21360;SDS011;10839;43.206;23.550;2023-11-19T00:51:26;1.50;;;1.30;;
21360;SDS011;10839;43.206;23.550;2023-11-19T00:53:52;1.63;;;1.10;;
21360;SDS011;10839;43.206;23.550;2023-11-19T00:56:18;2.42;;;1.30;;
21360;SDS011;10839;43.206;23.550;2023-11-19T00:58:45;1.45;;;1.10;;
21360;SDS011;10839;43.206;23.550;2023-11-19T01:01:14;2.22;;;1.30;;
21360;SDS011;10839;43.206;23.550;2023-11-19T01:03:39;1.42;;;1.25;;
21360;SDS011;10839;43.206;23.550;2023-11-19T01:06:05;1.98;;;1.20;;
21360;SDS011;10839;43.206;23.550;2023-11-19T01:08:31;1.40;;;1.30;;
21360;SDS011;10839;43.206;23.550;2023-11-19T01:10:57;1.73;;;1.30;;
21360;SDS011;10839;43.206;23.550;2023-11-19T01:13:23;1.30;;;1.20;;
21360;SDS011;10839;43.206;23.550;2023-11-19T01:15:49;1.40;;;1.23;;
21360;SDS011;10839;43.206;23.550;2023-11-19T01:18:15;1.55;;;1.10;;
21360;SDS011;10839;43.206;23.550;2023-11-19T01:20:42;1.92;;;1.40;;
21360;SDS011;10839;43.206;23.550;2023-11-19T01:23:07;1.60;;;1.23;;
21360;SDS011;10839;43.206;23.550;2023-11-19T01:25:33;5.45;;;1.40;;
21360;SDS011;10839;43.206;23.550;2023-11-19T01:28:00;1.83;;;1.30;;
21360;SDS011;10839;43.206;23.550;2023-11-19T01:30:27;2.58;;;1.58;;
21360;SDS011;10839;43.206;23.550;2023-11-19T01:32:53;1.63;;;1.20;;
21360;SDS011;10839;43.206;23.550;2023-11-19T01:35:19;1.58;;;1.08;;
21360;SDS011;10839;43.206;23.550;2023-11-19T01:37:45;1.85;;;1.50;;
21360;SDS011;10839;43.206;23.550;2023-11-19T01:40:11;1.92;;;1.30;;
21360;SDS011;10839;43.206;23.550;2023-11-19T01:42:37;1.13;;;1.00;;
21360;SDS011;10839;43.206;23.550;2023-11-19T01:45:04;2.30;;;1.60;;
21360;SDS011;10839;43.206;23.550;2023-11-19T01:47:32;1.33;;;1.23;;
21360;SDS011;10839;43.206;23.550;2023-11-19T01:49:59;1.75;;;1.50;;
21360;SDS011;10839;43.206;23.550;2023-11-19T01:52:25;2.00;;;1.50;;
21360;SDS011;10839;43.206;23.550;2023-11-19T01:54:52;3.45;;;1.63;;
21360;SDS011;10839;43.206;23.550;2023-11-19T01:57:19;1.90;;;1.30;;
21360;SDS011;10839;43.206;23.550;2023-11-19T01:59:48;1.60;;;1.25;;
21360;SDS011;10839;43.206;23.550;2023-11-19T02:02:16;2.65;;;1.58;;
21360;SDS011;10839;43.206;23.550;2023-11-19T02:04:46;1.67;;;1.30;;
21360;SDS011;10839;43.206;23.550;2023-11-19T02:07:14;1.50;;;1.30;;
21360;SDS011;10839;43.206;23.550;2023-11-19T02:09:43;2.13;;;1.65;;
21360;SDS011;10839;43.206;23.550;2023-11-19T02:12:09;3.33;;;2.00;;
21360;SDS011;10839;43.206;23.550;2023-11-19T02:14:37;3.95;;;1.73;;
21360;SDS011;10839;43.206;23.550;2023-11-19T02:17:04;2.67;;;1.35;;
21360;SDS011;10839;43.206;23.550;2023-11-19T02:19:31;2.10;;;1.40;;
21360;SDS011;10839;43.206;23.550;2023-11-19T02:21:57;2.05;;;1.60;;
21360;SDS011;10839;43.206;23.550;2023-11-19T02:24:23;3.30;;;1.67;;
21360;SDS011;10839;43.206;23.550;2023-11-19T02:29:32;2.38;;;1.80;;
21360;SDS011;10839;43.206;23.550;2023-11-19T02:32:00;2.38;;;1.60;;
21360;SDS011;10839;43.206;23.550;2023-11-19T02:34:29;1.65;;;1.30;;
21360;SDS011;10839;43.206;23.550;2023-11-19T02:36:55;3.17;;;1.50;;
21360;SDS011;10839;43.206;23.550;2023-11-19T02:39:20;3.20;;;1.85;;
21360;SDS011;10839;43.206;23.550;2023-11-19T02:41:47;2.08;;;1.48;;
21360;SDS011;10839;43.206;23.550;2023-11-19T02:44:16;3.13;;;1.90;;
21360;SDS011;10839;43.206;23.550;2023-11-19T02:46:42;5.53;;;3.35;;
21360;SDS011;10839;43.206;23.550;2023-11-19T02:49:08;4.35;;;3.17;;
21360;SDS011;10839;43.206;23.550;2023-11-19T02:51:34;6.28;;;3.22;;
21360;SDS011;10839;43.206;23.550;2023-11-19T02:54:04;3.28;;;2.20;;
21360;SDS011;10839;43.206;23.550;2023-11-19T02:56:30;3.80;;;2.70;;
21360;SDS011;10839;43.206;23.550;2023-11-19T02:59:00;2.50;;;2.17;;
21360;SDS011;10839;43.206;23.550;2023-11-19T03:01:34;3.00;;;2.30;;
21360;SDS011;10839;43.206;23.550;2023-11-19T03:04:01;4.85;;;2.42;;
21360;SDS011;10839;43.206;23.550;2023-11-19T03:06:27;4.30;;;2.50;;
21360;SDS011;10839;43.206;23.550;2023-11-19T03:08:57;4.03;;;2.65;;
21360;SDS011;10839;43.206;23.550;2023-11-19T03:11:22;3.65;;;1.90;;
21360;SDS011;10839;43.206;23.550;2023-11-19T03:13:49;2.75;;;1.75;;
21360;SDS011;10839;43.206;23.550;2023-11-19T03:16:15;12.00;;;5.60;;
21360;SDS011;10839;43.206;23.550;2023-11-19T03:18:42;16.20;;;7.78;;
21360;SDS011;10839;43.206;23.550;2023-11-19T03:21:08;7.65;;;3.70;;
21360;SDS011;10839;43.206;23.550;2023-11-19T03:23:34;3.05;;;2.15;;
21360;SDS011;10839;43.206;23.550;2023-11-19T03:26:00;4.07;;;2.75;;
21360;SDS011;10839;43.206;23.550;2023-11-19T03:28:29;4.10;;;2.60;;
21360;SDS011;10839;43.206;23.550;2023-11-19T03:30:55;4.30;;;2.70;;
21360;SDS011;10839;43.206;23.550;2023-11-19T03:33:20;3.42;;;2.00;;
21360;SDS011;10839;43.206;23.550;2023-11-19T03:35:46;2.70;;;2.00;;
21360;SDS011;10839;43.206;23.550;2023-11-19T03:38:12;1.98;;;1.75;;
21360;SDS011;10839;43.206;23.550;2023-11-19T03:40:40;2.72;;;1.67;;
21360;SDS011;10839;43.206;23.550;2023-11-19T03:43:06;2.13;;;1.50;;
21360;SDS011;10839;43.206;23.550;2023-11-19T03:45:32;2.08;;;1.35;;
21360;SDS011;10839;43.206;23.550;2023-11-19T03:47:57;2.22;;;1.55;;
21360;SDS011;10839;43.206;23.550;2023-11-19T03:50:23;2.13;;;1.60;;
21360;SDS011;10839;43.206;23.550;2023-11-19T03:52:49;1.73;;;1.50;;
21360;SDS011;10839;43.206;23.550;2023-11-19T03:55:15;3.20;;;2.08;;
21360;SDS011;10839;43.206;23.550;2023-11-19T03:57:40;2.97;;;1.88;;
21360;SDS011;10839;43.206;23.550;2023-11-19T04:00:06;4.40;;;2.22;;
21360;SDS011;10839;43.206;23.550;2023-11-19T04:02:39;4.65;;;2.58;;
21360;SDS011;10839;43.206;23.550;2023-11-19T04:05:06;11.20;;;5.35;;
21360;SDS011;10839;43.206;23.550;2023-11-19T04:07:33;6.70;;;3.13;;
21360;SDS011;10839;43.206;23.550;2023-11-19T04:09:59;2.92;;;2.00;;
21360;SDS011;10839;43.206;23.550;2023-11-19T04:12:25;3.20;;;2.20;;
21360;SDS011;10839;43.206;23.550;2023-11-19T04:14:51;1.65;;;1.55;;
21360;SDS011;10839;43.206;23.550;2023-11-19T04:17:18;2.05;;;1.85;;
21360;SDS011;10839;43.206;23.550;2023-11-19T04:19:44;3.75;;;1.60;;
21360;SDS011;10839;43.206;23.550;2023-11-19T04:22:10;2.35;;;1.48;;
21360;SDS011;10839;43.206;23.550;2023-11-19T04:24:36;2.22;;;1.60;;
21360;SDS011;10839;43.206;23.550;2023-11-19T04:27:04;6.63;;;3.42;;
21360;SDS011;10839;43.206;23.550;2023-11-19T04:29:31;13.82;;;7.22;;
21360;SDS011;10839;43.206;23.550;2023-11-19T04:31:57;7.93;;;3.78;;
21360;SDS011;10839;43.206;23.550;2023-11-19T04:34:24;4.97;;;2.97;;
21360;SDS011;10839;43.206;23.550;2023-11-19T04:36:51;3.08;;;2.03;;
21360;SDS011;10839;43.206;23.550;2023-11-19T04:39:16;5.30;;;2.92;;
21360;SDS011;10839;43.206;23.550;2023-11-19T04:41:50;2.53;;;1.80;;
21360;SDS011;10839;43.206;23.550;2023-11-19T04:44:20;2.42;;;1.52;;
21360;SDS011;10839;43.206;23.550;2023-11-19T04:46:46;2.75;;;1.50;;
21360;SDS011;10839;43.206;23.550;2023-11-19T04:49:13;2.42;;;1.73;;
21360;SDS011;10839;43.206;23.550;2023-11-19T04:51:43;1.95;;;1.52;;
21360;SDS011;10839;43.206;23.550;2023-11-19T04:54:12;5.05;;;2.40;;
21360;SDS011;10839;43.206;23.550;2023-11-19T04:56:38;16.48;;;8.35;;
21360;SDS011;10839;43.206;23.550;2023-11-19T04:59:05;6.38;;;3.65;;
21360;SDS011;10839;43.206;23.550;2023-11-19T05:01:32;4.05;;;2.30;;
21360;SDS011;10839;43.206;23.550;2023-11-19T05:03:58;2.30;;;2.00;;
21360;SDS011;10839;43.206;23.550;2023-11-19T05:06:28;2.55;;;1.80;;
21360;SDS011;10839;43.206;23.550;2023-11-19T05:08:55;2.55;;;2.00;;
21360;SDS011;10839;43.206;23.550;2023-11-19T05:11:21;1.88;;;1.50;;
21360;SDS011;10839;43.206;23.550;2023-11-19T05:13:47;1.63;;;1.38;;
21360;SDS011;10839;43.206;23.550;2023-11-19T05:16:13;2.08;;;1.63;;
21360;SDS011;10839;43.206;23.550;2023-11-19T05:18:39;2.38;;;1.55;;
21360;SDS011;10839;43.206;23.550;2023-11-19T05:21:06;2.15;;;1.60;;
21360;SDS011;10839;43.206;23.550;2023-11-19T05:23:34;1.83;;;1.40;;
21360;SDS011;10839;43.206;23.550;2023-11-19T05:26:01;3.50;;;1.80;;
21360;SDS011;10839;43.206;23.550;2023-11-19T05:28:27;30.55;;;12.82;;
21360;SDS011;10839;43.206;23.550;2023-11-19T05:30:53;35.28;;;14.02;;
21360;SDS011;10839;43.206;23.550;2023-11-19T05:33:19;23.77;;;12.10;;
21360;SDS011;10839;43.206;23.550;2023-11-19T05:35:44;13.98;;;5.55;;
21360;SDS011;10839;43.206;23.550;2023-11-19T05:38:10;13.30;;;6.30;;
21360;SDS011;10839;43.206;23.550;2023-11-19T05:40:36;19.60;;;8.40;;
21360;SDS011;10839;43.206;23.550;2023-11-19T05:43:04;7.57;;;3.72;;
21360;SDS011;10839;43.206;23.550;2023-11-19T05:45:30;5.07;;;2.90;;
21360;SDS011;10839;43.206;23.550;2023-11-19T05:47:57;5.72;;;3.10;;
21360;SDS011;10839;43.206;23.550;2023-11-19T05:50:23;4.28;;;2.75;;
21360;SDS011;10839;43.206;23.550;2023-11-19T05:52:49;5.88;;;2.58;;
21360;SDS011;10839;43.206;23.550;2023-11-19T05:55:15;8.05;;;3.95;;
21360;SDS011;10839;43.206;23.550;2023-11-19T05:57:41;4.40;;;2.65;;
21360;SDS011;10839;43.206;23.550;2023-11-19T06:00:08;4.95;;;2.53;;
21360;SDS011;10839;43.206;23.550;2023-11-19T06:02:38;3.08;;;2.03;;
21360;SDS011;10839;43.206;23.550;2023-11-19T06:05:05;2.85;;;2.03;;
21360;SDS011;10839;43.206;23.550;2023-11-19T06:07:32;3.25;;;2.15;;
21360;SDS011;10839;43.206;23.550;2023-11-19T06:09:58;4.55;;;2.50;;
21360;SDS011;10839;43.206;23.550;2023-11-19T06:12:24;3.30;;;2.42;;
21360;SDS011;10839;43.206;23.550;2023-11-19T06:14:50;4.47;;;2.78;;
21360;SDS011;10839;43.206;23.550;2023-11-19T06:17:16;21.70;;;12.73;;
21360;SDS011;10839;43.206;23.550;2023-11-19T06:19:41;31.67;;;16.65;;
21360;SDS011;10839;43.206;23.550;2023-11-19T06:22:07;24.55;;;10.55;;
21360;SDS011;10839;43.206;23.550;2023-11-19T06:24:33;25.27;;;11.65;;
21360;SDS011;10839;43.206;23.550;2023-11-19T06:26:58;15.18;;;7.80;;
21360;SDS011;10839;43.206;23.550;2023-11-19T06:29:24;32.85;;;21.40;;
21360;SDS011;10839;43.206;23.550;2023-11-19T06:31:50;30.63;;;18.45;;
21360;SDS011;10839;43.206;23.550;2023-11-19T06:34:16;18.27;;;11.10;;
21360;SDS011;10839;43.206;23.550;2023-11-19T06:36:42;9.48;;;6.35;;
21360;SDS011;10839;43.206;23.550;2023-11-19T06:39:09;5.38;;;3.75;;
21360;SDS011;10839;43.206;23.550;2023-11-19T06:41:36;5.75;;;3.70;;
21360;SDS011;10839;43.206;23.550;2023-11-19T06:44:05;5.18;;;3.20;;
21360;SDS011;10839;43.206;23.550;2023-11-19T06:46:30;8.65;;;6.55;;
21360;SDS011;10839;43.206;23.550;2023-11-19T06:48:56;5.35;;;4.30;;
21360;SDS011;10839;43.206;23.550;2023-11-19T06:51:22;9.00;;;8.10;;
21360;SDS011;10839;43.206;23.550;2023-11-19T06:53:49;6.63;;;4.70;;
21360;SDS011;10839;43.206;23.550;2023-11-19T06:56:22;4.78;;;4.00;;
21360;SDS011;10839;43.206;23.550;2023-11-19T07:01:16;40.80;;;28.60;;
21360;SDS011;10839;43.206;23.550;2023-11-19T07:03:46;9.85;;;7.80;;
21360;SDS011;10839;43.206;23.550;2023-11-19T07:06:13;8.98;;;7.10;;
21360;SDS011;10839;43.206;23.550;2023-11-19T07:08:41;5.90;;;4.25;;
21360;SDS011;10839;43.206;23.550;2023-11-19T07:11:10;4.20;;;3.20;;
21360;SDS011;10839;43.206;23.550;2023-11-19T07:13:37;4.65;;;3.05;;
21360;SDS011;10839;43.206;23.550;2023-11-19T07:16:03;7.85;;;6.47;;
21360;SDS011;10839;43.206;23.550;2023-11-19T07:18:29;7.03;;;5.85;;
21360;SDS011;10839;43.206;23.550;2023-11-19T07:20:55;24.98;;;16.85;;
21360;SDS011;10839;43.206;23.550;2023-11-19T07:23:20;24.77;;;15.05;;
21360;SDS011;10839;43.206;23.550;2023-11-19T07:25:46;32.97;;;21.27;;
21360;SDS011;10839;43.206;23.550;2023-11-19T07:28:13;34.70;;;21.10;;
21360;SDS011;10839;43.206;23.550;2023-11-19T07:30:39;67.85;;;42.10;;
21360;SDS011;10839;43.206;23.550;2023-11-19T07:33:05;28.30;;;18.02;;
21360;SDS011;10839;43.206;23.550;2023-11-19T07:35:31;19.08;;;12.25;;
21360;SDS011;10839;43.206;23.550;2023-11-19T07:37:58;12.45;;;8.45;;
21360;SDS011;10839;43.206;23.550;2023-11-19T07:40:24;5.93;;;4.80;;
21360;SDS011;10839;43.206;23.550;2023-11-19T07:42:50;7.55;;;3.97;;
21360;SDS011;10839;43.206;23.550;2023-11-19T07:45:16;8.07;;;5.00;;
21360;SDS011;10839;43.206;23.550;2023-11-19T07:47:42;6.63;;;4.20;;
21360;SDS011;10839;43.206;23.550;2023-11-19T07:50:12;6.00;;;4.10;;
21360;SDS011;10839;43.206;23.550;2023-11-19T07:52:42;3.70;;;3.25;;
21360;SDS011;10839;43.206;23.550;2023-11-19T07:55:08;4.30;;;3.40;;
21360;SDS011;10839;43.206;23.550;2023-11-19T07:57:34;4.15;;;2.60;;
21360;SDS011;10839;43.206;23.550;2023-11-19T07:59:59;5.18;;;3.47;;
21360;SDS011;10839;43.206;23.550;2023-11-19T08:02:27;10.85;;;7.90;;
21360;SDS011;10839;43.206;23.550;2023-11-19T08:04:53;46.78;;;29.70;;
21360;SDS011;10839;43.206;23.550;2023-11-19T08:07:20;12.48;;;8.40;;
21360;SDS011;10839;43.206;23.550;2023-11-19T08:09:47;6.53;;;4.82;;
21360;SDS011;10839;43.206;23.550;2023-11-19T08:12:13;4.30;;;3.65;;
21360;SDS011;10839;43.206;23.550;2023-11-19T08:14:41;5.10;;;3.88;;
21360;SDS011;10839;43.206;23.550;2023-11-19T08:17:07;4.13;;;3.70;;
21360;SDS011;10839;43.206;23.550;2023-11-19T08:19:32;5.90;;;4.20;;
21360;SDS011;10839;43.206;23.550;2023-11-19T08:21:58;4.78;;;3.28;;
21360;SDS011;10839;43.206;23.550;2023-11-19T08:24:24;4.20;;;2.90;;
21360;SDS011;10839;43.206;23.550;2023-11-19T08:26:49;3.85;;;2.90;;
21360;SDS011;10839;43.206;23.550;2023-11-19T08:29:15;3.05;;;2.65;;
21360;SDS011;10839;43.206;23.550;2023-11-19T08:31:41;7.40;;;4.60;;
21360;SDS011;10839;43.206;23.550;2023-11-19T08:34:07;17.92;;;12.55;;
21360;SDS011;10839;43.206;23.550;2023-11-19T08:36:34;8.35;;;5.95;;
21360;SDS011;10839;43.206;23.550;2023-11-19T08:39:00;12.45;;;6.45;;
21360;SDS011;10839;43.206;23.550;2023-11-19T08:41:26;8.52;;;5.70;;
21360;SDS011;10839;43.206;23.550;2023-11-19T08:43:52;6.35;;;3.45;;
21360;SDS011;10839;43.206;23.550;2023-11-19T08:46:18;4.35;;;2.75;;
21360;SDS011;10839;43.206;23.550;2023-11-19T08:48:44;4.20;;;2.85;;
21360;SDS011;10839;43.206;23.550;2023-11-19T08:51:11;3.38;;;2.70;;
21360;SDS011;10839;43.206;23.550;2023-11-19T08:53:38;11.02;;;7.43;;
21360;SDS011;10839;43.206;23.550;2023-11-19T08:56:03;27.83;;;16.55;;
21360;SDS011;10839;43.206;23.550;2023-11-19T08:58:30;30.83;;;17.38;;
21360;SDS011;10839;43.206;23.550;2023-11-19T09:00:56;16.23;;;10.60;;
21360;SDS011;10839;43.206;23.550;2023-11-19T09:03:23;5.05;;;4.18;;
21360;SDS011;10839;43.206;23.550;2023-11-19T09:05:51;61.75;;;37.75;;
21360;SDS011;10839;43.206;23.550;2023-11-19T09:08:16;37.42;;;24.58;;
21360;SDS011;10839;43.206;23.550;2023-11-19T09:10:43;9.00;;;6.20;;
21360;SDS011;10839;43.206;23.550;2023-11-19T09:13:08;6.43;;;4.25;;
21360;SDS011;10839;43.206;23.550;2023-11-19T09:15:34;4.75;;;3.78;;
21360;SDS011;10839;43.206;23.550;2023-11-19T09:18:00;3.53;;;2.90;;
21360;SDS011;10839;43.206;23.550;2023-11-19T09:20:26;4.50;;;3.45;;
21360;SDS011;10839;43.206;23.550;2023-11-19T09:22:51;3.47;;;2.72;;
21360;SDS011;10839;43.206;23.550;2023-11-19T09:25:17;5.68;;;3.13;;
21360;SDS011;10839;43.206;23.550;2023-11-19T09:27:43;5.50;;;3.22;;
21360;SDS011;10839;43.206;23.550;2023-11-19T09:30:09;3.75;;;2.90;;
21360;SDS011;10839;43.206;23.550;2023-11-19T09:32:35;4.40;;;3.63;;
21360;SDS011;10839;43.206;23.550;2023-11-19T09:35:03;3.40;;;2.65;;
21360;SDS011;10839;43.206;23.550;2023-11-19T09:37:29;2.35;;;2.15;;
21360;SDS011;10839;43.206;23.550;2023-11-19T09:39:55;4.45;;;2.50;;
21360;SDS011;10839;43.206;23.550;2023-11-19T09:42:21;3.00;;;2.50;;
21360;SDS011;10839;43.206;23.550;2023-11-19T09:44:49;16.75;;;10.45;;
21360;SDS011;10839;43.206;23.550;2023-11-19T09:47:16;8.10;;;5.28;;
21360;SDS011;10839;43.206;23.550;2023-11-19T09:49:42;5.43;;;3.83;;
21360;SDS011;10839;43.206;23.550;2023-11-19T09:52:09;6.25;;;4.53;;
21360;SDS011;10839;43.206;23.550;2023-11-19T09:54:35;5.03;;;3.30;;
21360;SDS011;10839;43.206;23.550;2023-11-19T09:57:01;4.13;;;2.42;;
21360;SDS011;10839;43.206;23.550;2023-11-19T09:59:29;4.07;;;3.10;;
21360;SDS011;10839;43.206;23.550;2023-11-19T10:01:56;5.13;;;3.08;;
21360;SDS011;10839;43.206;23.550;2023-11-19T10:04:22;4.10;;;3.10;;
21360;SDS011;10839;43.206;23.550;2023-11-19T10:06:52;10.35;;;6.50;;
21360;SDS011;10839;43.206;23.550;2023-11-19T10:09:18;42.97;;;26.88;;
21360;SDS011;10839;43.206;23.550;2023-11-19T10:11:44;15.35;;;10.45;;
21360;SDS011;10839;43.206;23.550;2023-11-19T10:14:10;8.95;;;6.25;;
21360;SDS011;10839;43.206;23.550;2023-11-19T10:16:35;8.57;;;6.00;;
21360;SDS011;10839;43.206;23.550;2023-11-19T10:19:03;6.20;;;5.07;;
21360;SDS011;10839;43.206;23.550;2023-11-19T10:21:29;4.78;;;4.15;;
21360;SDS011;10839;43.206;23.550;2023-11-19T10:23:59;6.30;;;3.92;;
21360;SDS011;10839;43.206;23.550;2023-11-19T10:26:25;3.17;;;2.60;;
21360;SDS011;10839;43.206;23.550;2023-11-19T10:28:53;3.72;;;2.40;;
21360;SDS011;10839;43.206;23.550;2023-11-19T10:31:19;20.60;;;13.38;;
21360;SDS011;10839;43.206;23.550;2023-11-19T10:33:54;20.42;;;12.45;;
21360;SDS011;10839;43.206;23.550;2023-11-19T10:36:21;25.48;;;15.95;;
21360;SDS011;10839;43.206;23.550;2023-11-19T10:38:52;9.35;;;6.10;;
21360;SDS011;10839;43.206;23.550;2023-11-19T10:41:29;10.68;;;7.07;;
21360;SDS011;10839;43.206;23.550;2023-11-19T10:43:56;5.43;;;4.07;;
21360;SDS011;10839;43.206;23.550;2023-11-19T10:46:22;4.38;;;3.60;;
21360;SDS011;10839;43.206;23.550;2023-11-19T10:48:49;10.45;;;6.95;;
21360;SDS011;10839;43.206;23.550;2023-11-19T10:51:18;8.98;;;5.70;;
21360;SDS011;10839;43.206;23.550;2023-11-19T10:56:18;5.55;;;4.10;;
21360;SDS011;10839;43.206;23.550;2023-11-19T10:58:50;5.57;;;4.50;;
21360;SDS011;10839;43.206;23.550;2023-11-19T11:01:21;35.90;;;22.02;;
21360;SDS011;10839;43.206;23.550;2023-11-19T11:06:19;9.13;;;6.20;;
21360;SDS011;10839;43.206;23.550;2023-11-19T11:08:46;4.47;;;3.55;;
21360;SDS011;10839;43.206;23.550;2023-11-19T11:11:13;4.35;;;3.47;;
21360;SDS011;10839;43.206;23.550;2023-11-19T11:13:42;5.15;;;3.75;;
21360;SDS011;10839;43.206;23.550;2023-11-19T11:16:11;2.60;;;2.28;;
21360;SDS011;10839;43.206;23.550;2023-11-19T11:18:37;4.10;;;3.42;;
21360;SDS011;10839;43.206;23.550;2023-11-19T11:21:07;4.68;;;3.50;;
21360;SDS011;10839;43.206;23.550;2023-11-19T11:29:26;4.25;;;3.00;;
21360;SDS011;10839;43.206;23.550;2023-11-19T11:35:07;5.72;;;2.45;;
21360;SDS011;10839;43.206;23.550;2023-11-19T11:37:45;3.55;;;2.80;;
21360;SDS011;10839;43.206;23.550;2023-11-19T11:40:15;3.38;;;2.92;;
21360;SDS011;10839;43.206;23.550;2023-11-19T11:42:46;3.42;;;2.88;;
21360;SDS011;10839;43.206;23.550;2023-11-19T11:45:12;3.33;;;2.70;;
21360;SDS011;10839;43.206;23.550;2023-11-19T11:50:09;4.47;;;2.95;;
21360;SDS011;10839;43.206;23.550;2023-11-19T11:55:27;2.67;;;2.20;;
21360;SDS011;10839;43.206;23.550;2023-11-19T11:57:55;3.55;;;2.58;;
21360;SDS011;10839;43.206;23.550;2023-11-19T12:03:01;2.83;;;2.35;;
21360;SDS011;10839;43.206;23.550;2023-11-19T12:05:29;3.25;;;2.60;;
21360;SDS011;10839;43.206;23.550;2023-11-19T12:07:56;3.10;;;2.22;;
21360;SDS011;10839;43.206;23.550;2023-11-19T12:10:28;2.78;;;2.20;;
21360;SDS011;10839;43.206;23.550;2023-11-19T12:13:00;3.00;;;2.40;;
21360;SDS011;10839;43.206;23.550;2023-11-19T12:15:27;2.67;;;2.30;;
21360;SDS011;10839;43.206;23.550;2023-11-19T12:17:54;2.42;;;1.95;;
21360;SDS011;10839;43.206;23.550;2023-11-19T12:20:21;3.42;;;2.42;;
21360;SDS011;10839;43.206;23.550;2023-11-19T12:22:48;6.32;;;3.65;;
21360;SDS011;10839;43.206;23.550;2023-11-19T12:25:15;7.22;;;4.32;;
21360;SDS011;10839;43.206;23.550;2023-11-19T12:27:42;6.63;;;3.33;;
21360;SDS011;10839;43.206;23.550;2023-11-19T12:30:10;7.25;;;4.80;;
21360;SDS011;10839;43.206;23.550;2023-11-19T12:32:42;6.45;;;3.80;;
21360;SDS011;10839;43.206;23.550;2023-11-19T12:35:12;5.40;;;3.38;;
21360;SDS011;10839;43.206;23.550;2023-11-19T12:37:45;4.22;;;2.58;;
21360;SDS011;10839;43.206;23.550;2023-11-19T12:42:54;3.35;;;2.75;;
21360;SDS011;10839;43.206;23.550;2023-11-19T12:45:20;7.13;;;4.83;;
21360;SDS011;10839;43.206;23.550;2023-11-19T12:47:49;5.85;;;4.32;;
21360;SDS011;10839;43.206;23.550;2023-11-19T12:50:17;4.38;;;3.70;;
21360;SDS011;10839;43.206;23.550;2023-11-19T12:52:56;8.23;;;5.53;;
21360;SDS011;10839;43.206;23.550;2023-11-19T12:55:24;6.50;;;4.32;;
21360;SDS011;10839;43.206;23.550;2023-11-19T12:57:58;5.60;;;4.18;;
21360;SDS011;10839;43.206;23.550;2023-11-19T13:00:25;6.20;;;4.13;;
21360;SDS011;10839;43.206;23.550;2023-11-19T13:02:53;6.28;;;4.10;;
21360;SDS011;10839;43.206;23.550;2023-11-19T13:05:20;52.97;;;28.20;;
21360;SDS011;10839;43.206;23.550;2023-11-19T13:07:46;39.33;;;22.98;;
21360;SDS011;10839;43.206;23.550;2023-11-19T13:10:12;31.75;;;17.52;;
21360;SDS011;10839;43.206;23.550;2023-11-19T13:12:39;27.20;;;16.10;;
21360;SDS011;10839;43.206;23.550;2023-11-19T13:15:05;20.55;;;10.95;;
21360;SDS011;10839;43.206;23.550;2023-11-19T13:17:31;14.10;;;6.93;;
21360;SDS011;10839;43.206;23.550;2023-11-19T13:19:57;13.20;;;7.38;;
21360;SDS011;10839;43.206;23.550;2023-11-19T13:22:22;48.53;;;25.75;;
21360;SDS011;10839;43.206;23.550;2023-11-19T13:24:48;19.23;;;11.55;;
21360;SDS011;10839;43.206;23.550;2023-11-19T13:27:14;19.63;;;11.02;;
21360;SDS011;10839;43.206;23.550;2023-11-19T13:29:40;14.35;;;7.78;;
21360;SDS011;10839;43.206;23.550;2023-11-19T13:32:05;9.77;;;6.38;;
21360;SDS011;10839;43.206;23.550;2023-11-19T13:34:31;8.75;;;5.25;;
21360;SDS011;10839;43.206;23.550;2023-11-19T13:36:57;8.75;;;5.97;;
21360;SDS011;10839;43.206;23.550;2023-11-19T13:39:23;9.10;;;5.22;;
21360;SDS011;10839;43.206;23.550;2023-11-19T13:41:49;8.48;;;5.55;;
21360;SDS011;10839;43.206;23.550;2023-11-19T13:44:15;17.75;;;8.57;;
21360;SDS011;10839;43.206;23.550;2023-11-19T13:46:46;12.20;;;7.32;;
21360;SDS011;10839;43.206;23.550;2023-11-19T13:49:12;32.47;;;18.08;;
21360;SDS011;10839;43.206;23.550;2023-11-19T13:51:38;24.73;;;12.45;;
21360;SDS011;10839;43.206;23.550;2023-11-19T13:54:03;30.20;;;15.23;;
21360;SDS011;10839;43.206;23.550;2023-11-19T13:56:29;14.82;;;7.70;;
21360;SDS011;10839;43.206;23.550;2023-11-19T13:58:55;14.75;;;7.78;;
21360;SDS011;10839;43.206;23.550;2023-11-19T14:01:21;10.65;;;7.10;;
21360;SDS011;10839;43.206;23.550;2023-11-19T14:03:47;12.18;;;6.40;;
21360;SDS011;10839;43.206;23.550;2023-11-19T14:06:12;13.00;;;6.30;;
21360;SDS011;10839;43.206;23.550;2023-11-19T14:08:38;24.45;;;11.48;;
21360;SDS011;10839;43.206;23.550;2023-11-19T14:11:04;23.02;;;10.60;;
21360;SDS011;10839;43.206;23.550;2023-11-19T14:13:30;23.25;;;10.65;;
21360;SDS011;10839;43.206;23.550;2023-11-19T14:15:56;20.17;;;9.48;;
21360;SDS011;10839;43.206;23.550;2023-11-19T14:18:22;21.33;;;8.95;;
21360;SDS011;10839;43.206;23.550;2023-11-19T14:20:48;20.23;;;8.80;;
21360;SDS011;10839;43.206;23.550;2023-11-19T14:23:14;18.88;;;8.57;;
21360;SDS011;10839;43.206;23.550;2023-11-19T14:25:39;25.23;;;9.77;;
21360;SDS011;10839;43.206;23.550;2023-11-19T14:28:05;22.75;;;11.35;;
21360;SDS011;10839;43.206;23.550;2023-11-19T14:30:31;19.30;;;10.50;;
21360;SDS011;10839;43.206;23.550;2023-11-19T14:32:57;15.68;;;8.88;;
21360;SDS011;10839;43.206;23.550;2023-11-19T14:35:23;11.98;;;7.20;;
21360;SDS011;10839;43.206;23.550;2023-11-19T14:37:50;18.63;;;9.77;;
21360;SDS011;10839;43.206;23.550;2023-11-19T14:40:16;15.23;;;9.15;;
21360;SDS011;10839;43.206;23.550;2023-11-19T14:42:41;8.75;;;6.43;;
21360;SDS011;10839;43.206;23.550;2023-11-19T14:45:08;42.53;;;24.83;;
21360;SDS011;10839;43.206;23.550;2023-11-19T14:47:37;19.70;;;12.05;;
21360;SDS011;10839;43.206;23.550;2023-11-19T14:50:03;33.20;;;18.30;;
21360;SDS011;10839;43.206;23.550;2023-11-19T14:52:29;30.02;;;17.55;;
21360;SDS011;10839;43.206;23.550;2023-11-19T14:54:54;19.90;;;12.13;;